Time;durP1;ratioP1;P1;durP2;ratioP2;P2;SDS_P1;SDS_P2;PMS_P1;PMS_P2;Temp;Humidity;BMP_temperature;BMP_pressure;BME280_temperature;BME280_humidity;BME280_pressure;Samples;Min_cycle;Max_cycle;Signal;HPM_P1;HPM_P2
2021/01/23 00:02:02;;;;;;;13.05;4.05;;;1.50;99.90;;;;;;5033135;28;20423;-73
2021/01/23 00:04:28;;;;;;;10.98;3.60;;;1.50;99.90;;;;;;5033169;28;20049;-73
2021/01/23 00:06:53;;;;;;;10.85;3.78;;;1.60;99.90;;;;;;5032892;28;20030;-73
2021/01/23 00:09:19;;;;;;;15.90;4.85;;;1.70;99.90;;;;;;5036108;28;20029;-73
2021/01/23 00:11:45;;;;;;;16.27;3.85;;;1.60;99.90;;;;;;5035170;28;20075;-73
2021/01/23 00:14:10;;;;;;;10.45;3.58;;;1.60;99.90;;;;;;5035082;28;20026;-73
2021/01/23 00:16:36;;;;;;;11.38;3.53;;;1.70;99.90;;;;;;5036355;28;20044;-73
2021/01/23 00:19:01;;;;;;;10.60;4.22;;;1.70;99.90;;;;;;5036621;28;20017;-73
2021/01/23 00:21:27;;;;;;;13.13;3.90;;;1.70;99.90;;;;;;5036103;28;20041;-73
2021/01/23 00:23:53;;;;;;;16.27;3.33;;;1.70;99.90;;;;;;5036182;28;20028;-73
2021/01/23 00:26:18;;;;;;;9.02;3.65;;;1.70;99.90;;;;;;5035222;28;20049;-73
2021/01/23 00:28:44;;;;;;;10.43;3.22;;;1.70;99.90;;;;;;5036132;28;20017;-73
2021/01/23 00:31:09;;;;;;;11.27;3.58;;;1.70;99.90;;;;;;5036491;28;20474;-73
2021/01/23 00:33:35;;;;;;;17.15;4.13;;;1.70;99.90;;;;;;5044724;28;20490;-73
2021/01/23 00:36:01;;;;;;;12.80;4.28;;;1.80;99.90;;;;;;5054474;28;20529;-73
2021/01/23 00:38:27;;;;;;;8.90;3.85;;;1.80;99.90;;;;;;5054496;28;20021;-73
2021/01/23 00:40:52;;;;;;;13.50;5.03;;;1.80;99.90;;;;;;5054452;28;20032;-73
2021/01/23 00:43:18;;;;;;;12.80;4.32;;;1.80;99.90;;;;;;5052445;28;20025;-73
2021/01/23 00:45:43;;;;;;;10.13;3.63;;;1.80;99.90;;;;;;5035941;28;20021;-73
2021/01/23 00:48:13;;;;;;;20.10;3.78;;;1.80;99.90;;;;;;5034359;28;20426;-73
2021/01/23 00:50:38;;;;;;;7.95;3.33;;;1.80;99.90;;;;;;5035738;28;20068;-73
2021/01/23 00:53:04;;;;;;;13.52;4.07;;;1.80;99.90;;;;;;5035691;28;20487;-73
2021/01/23 00:55:30;;;;;;;13.00;2.97;;;1.80;99.90;;;;;;5036107;28;20025;-73
2021/01/23 00:57:57;;;;;;;9.50;3.35;;;1.80;99.90;;;;;;5034210;28;20387;-73
2021/01/23 01:00:23;;;;;;;9.75;3.00;;;1.90;99.90;;;;;;5036145;28;20025;-74
2021/01/23 01:02:49;;;;;;;12.10;3.40;;;1.90;99.90;;;;;;5034170;28;20076;-74
2021/01/23 01:05:15;;;;;;;13.07;3.47;;;1.90;99.90;;;;;;5034515;28;20067;-74
2021/01/23 01:07:41;;;;;;;10.43;3.25;;;1.90;99.90;;;;;;5035374;28;20048;-74
2021/01/23 01:10:08;;;;;;;10.82;3.15;;;1.90;99.90;;;;;;5035623;28;20026;-74
2021/01/23 01:12:34;;;;;;;7.53;3.38;;;1.80;99.90;;;;;;5045010;28;20021;-73
2021/01/23 01:14:59;;;;;;;8.23;2.88;;;1.80;99.90;;;;;;5054947;28;20037;-73
2021/01/23 01:17:25;;;;;;;12.38;3.47;;;1.80;99.90;;;;;;5053596;28;20025;-73
2021/01/23 01:19:51;;;;;;;12.27;3.25;;;1.80;99.90;;;;;;5054787;28;20478;-74
2021/01/23 01:22:16;;;;;;;7.38;3.33;;;1.80;99.90;;;;;;5055218;28;20021;-74
2021/01/23 01:24:42;;;;;;;16.73;3.90;;;1.80;99.90;;;;;;5053605;28;20021;-74
2021/01/23 01:27:07;;;;;;;13.10;4.13;;;1.70;99.90;;;;;;5053811;28;20121;-74
2021/01/23 01:29:33;;;;;;;12.65;4.00;;;1.70;99.90;;;;;;5055414;28;20455;-74
2021/01/23 01:31:59;;;;;;;7.43;2.90;;;1.70;99.90;;;;;;5053475;28;20051;-74
2021/01/23 01:34:24;;;;;;;10.32;3.92;;;1.80;99.90;;;;;;5054970;28;20021;-74
2021/01/23 01:36:50;;;;;;;10.02;3.67;;;1.80;99.90;;;;;;5054590;28;20029;-74
2021/01/23 01:39:15;;;;;;;12.10;3.70;;;1.80;99.90;;;;;;5054919;28;20017;-74
2021/01/23 01:41:41;;;;;;;13.93;3.95;;;1.80;99.90;;;;;;5053321;28;20021;-74
2021/01/23 01:44:07;;;;;;;6.57;3.78;;;1.80;99.90;;;;;;5053316;28;20029;-73
2021/01/23 01:46:36;;;;;;;7.72;3.70;;;1.80;99.90;;;;;;5053383;28;20017;-74
2021/01/23 01:49:06;;;;;;;9.32;3.85;;;1.80;99.90;;;;;;5053235;28;20028;-75
2021/01/23 01:51:32;;;;;;;10.05;3.58;;;1.80;99.90;;;;;;5054029;28;20032;-75
2021/01/23 01:53:58;;;;;;;10.60;4.28;;;1.90;99.90;;;;;;5054291;28;20035;-75
2021/01/23 01:56:24;;;;;;;9.48;3.60;;;2.00;99.90;;;;;;5054372;28;20021;-75
2021/01/23 01:58:50;;;;;;;8.48;3.35;;;2.00;99.90;;;;;;5054322;28;20494;-75
2021/01/23 02:01:16;;;;;;;10.25;3.92;;;2.10;99.90;;;;;;5041688;28;20372;-74
2021/01/23 02:04:13;;;;;;;15.90;4.82;;;2.10;99.90;;;;;;5034135;28;20026;-74
2021/01/23 02:06:42;;;;;;;11.40;3.58;;;2.20;99.90;;;;;;5032943;28;20021;-74
2021/01/23 02:09:10;;;;;;;8.40;4.07;;;2.20;99.90;;;;;;5034298;28;20390;-75
2021/01/23 02:12:03;;;;;;;11.85;4.45;;;2.20;99.90;;;;;;5049275;28;20029;-75
2021/01/23 02:14:45;;;;;;;12.65;3.90;;;2.20;99.90;;;;;;5054112;28;20033;-75
2021/01/23 02:17:15;;;;;;;13.10;4.28;;;2.30;99.90;;;;;;5052747;28;20067;-75
2021/01/23 02:20:02;;;;;;;20.92;4.13;;;2.30;99.90;;;;;;5052728;28;20530;-75
2021/01/23 02:22:32;;;;;;;8.50;4.03;;;2.30;99.90;;;;;;5052370;28;20037;-75
2021/01/23 02:25:01;;;;;;;13.73;4.43;;;2.40;99.90;;;;;;5052430;28;20399;-75
2021/01/23 02:28:00;;;;;;;12.20;4.75;;;2.40;99.90;;;;;;5050672;28;20147;-75
2021/01/23 02:30:37;;;;;;;9.10;4.35;;;2.30;99.90;;;;;;5052025;28;20032;-75
2021/01/23 02:33:06;;;;;;;15.00;3.83;;;2.30;99.90;;;;;;5053820;28;20108;-75
2021/01/23 02:35:32;;;;;;;11.38;4.90;;;2.40;99.90;;;;;;5053652;28;20032;-74
2021/01/23 02:37:58;;;;;;;10.52;4.05;;;2.40;99.90;;;;;;5039493;28;20037;-74
2021/01/23 02:40:25;;;;;;;10.68;4.65;;;2.50;99.90;;;;;;5032382;28;20163;-74
2021/01/23 02:42:51;;;;;;;11.80;4.80;;;2.50;99.90;;;;;;5033768;28;20028;-74
2021/01/23 02:45:16;;;;;;;16.20;5.03;;;2.50;99.90;;;;;;5032676;28;20065;-75
2021/01/23 02:47:42;;;;;;;13.55;4.45;;;2.50;99.90;;;;;;5044289;28;20025;-75
2021/01/23 02:50:09;;;;;;;14.48;5.38;;;2.50;99.90;;;;;;5057250;28;20083;-73
2021/01/23 02:52:43;;;;;;;12.20;4.60;;;2.50;99.90;;;;;;5055285;28;20375;-73
2021/01/23 02:55:14;;;;;;;16.63;5.25;;;2.50;99.90;;;;;;5052535;28;20074;-74
2021/01/23 02:57:42;;;;;;;13.13;4.95;;;2.60;99.90;;;;;;5043547;28;20044;-74
2021/01/23 03:00:09;;;;;;;9.23;4.78;;;2.60;99.90;;;;;;5033154;28;20040;-73
2021/01/23 03:02:38;;;;;;;9.68;4.32;;;2.60;99.90;;;;;;5034274;28;20021;-73
2021/01/23 03:05:04;;;;;;;9.85;5.10;;;2.60;99.90;;;;;;5033594;28;20372;-73
2021/01/23 03:07:30;;;;;;;10.70;4.43;;;2.70;99.90;;;;;;5043317;28;20502;-73
2021/01/23 03:09:56;;;;;;;12.30;4.40;;;2.70;99.90;;;;;;5055763;28;20009;-73
2021/01/23 03:12:21;;;;;;;13.30;5.05;;;2.70;99.90;;;;;;5055607;28;20036;-73
2021/01/23 03:14:47;;;;;;;13.93;5.03;;;2.70;99.90;;;;;;5053214;28;20047;-74
2021/01/23 03:17:13;;;;;;;8.73;4.22;;;2.70;99.90;;;;;;5051520;28;20031;-74
2021/01/23 03:19:38;;;;;;;16.40;4.47;;;2.80;99.90;;;;;;5053240;28;20017;-73
2021/01/23 03:22:04;;;;;;;9.70;4.30;;;2.80;99.90;;;;;;5054494;28;20021;-73
2021/01/23 03:24:29;;;;;;;13.75;5.35;;;2.80;99.90;;;;;;5049146;28;20549;-74
2021/01/23 03:26:55;;;;;;;13.30;4.55;;;2.80;99.90;;;;;;5039858;28;20033;-74
2021/01/23 03:29:21;;;;;;;13.68;4.85;;;2.70;99.90;;;;;;5041094;28;20022;-74
2021/01/23 03:31:47;;;;;;;10.05;5.10;;;2.70;99.90;;;;;;5033937;28;20026;-74
2021/01/23 03:34:13;;;;;;;17.15;4.75;;;2.70;99.90;;;;;;5038346;28;20025;-74
2021/01/23 03:36:39;;;;;;;9.95;5.13;;;2.80;99.90;;;;;;5056502;28;20021;-74
2021/01/23 03:39:06;;;;;;;9.68;4.50;;;2.80;99.90;;;;;;5055175;28;20028;-73
2021/01/23 03:41:33;;;;;;;11.57;4.93;;;2.80;99.90;;;;;;5056063;28;20021;-73
2021/01/23 03:43:59;;;;;;;13.73;4.75;;;2.80;99.90;;;;;;5057013;28;20114;-74
2021/01/23 03:46:25;;;;;;;12.27;4.68;;;2.80;99.90;;;;;;5055874;28;20057;-74
2021/01/23 03:48:50;;;;;;;10.80;5.07;;;2.80;99.90;;;;;;5056023;28;20360;-74
2021/01/23 03:51:16;;;;;;;10.82;4.57;;;2.80;99.90;;;;;;5058976;28;20052;-74
2021/01/23 03:53:41;;;;;;;9.00;4.43;;;2.90;99.90;;;;;;5060331;28;20024;-74
2021/01/23 03:56:07;;;;;;;11.68;5.10;;;2.80;99.90;;;;;;5058912;28;20025;-74
2021/01/23 03:58:34;;;;;;;13.15;4.70;;;2.80;99.90;;;;;;5056363;28;20040;-74
2021/01/23 04:01:00;;;;;;;11.60;5.00;;;2.80;99.90;;;;;;5059178;28;20479;-74
2021/01/23 04:03:25;;;;;;;13.40;4.90;;;2.80;99.90;;;;;;5057674;28;20064;-74
2021/01/23 04:05:51;;;;;;;16.08;5.65;;;2.70;99.90;;;;;;5055417;28;20463;-74
2021/01/23 04:08:16;;;;;;;11.25;4.50;;;2.70;99.90;;;;;;5055798;28;20013;-74
2021/01/23 04:10:42;;;;;;;10.55;4.55;;;2.80;99.90;;;;;;5055557;28;20017;-74
2021/01/23 04:13:11;;;;;;;11.50;5.28;;;2.70;99.90;;;;;;5057357;28;20021;-74
2021/01/23 04:15:37;;;;;;;16.25;5.00;;;2.70;99.90;;;;;;5058601;28;20040;-74
2021/01/23 04:18:04;;;;;;;10.45;4.95;;;2.70;99.90;;;;;;5057082;28;20036;-74
2021/01/23 04:20:29;;;;;;;17.73;5.57;;;2.70;99.90;;;;;;5056744;28;20108;-74
2021/01/23 04:22:55;;;;;;;9.45;4.60;;;2.70;99.90;;;;;;5056997;28;20060;-74
2021/01/23 04:25:21;;;;;;;18.65;5.70;;;2.70;99.90;;;;;;5058558;28;20025;-74
2021/01/23 04:27:46;;;;;;;10.48;4.47;;;2.70;99.90;;;;;;5057748;28;20049;-74
2021/01/23 04:30:12;;;;;;;12.63;4.13;;;2.70;99.90;;;;;;5054877;28;20426;-74
2021/01/23 04:32:38;;;;;;;9.52;4.93;;;2.70;99.90;;;;;;5055942;28;20398;-74
2021/01/23 04:35:06;;;;;;;17.00;4.88;;;2.70;99.90;;;;;;5056471;28;20029;-73
2021/01/23 04:37:32;;;;;;;13.75;5.10;;;2.70;99.90;;;;;;5055880;28;20033;-74
2021/01/23 04:39:58;;;;;;;13.98;5.68;;;2.60;99.90;;;;;;5055827;28;20074;-73
2021/01/23 04:42:23;;;;;;;20.05;6.00;;;2.60;99.90;;;;;;5055651;28;20032;-73
2021/01/23 04:44:49;;;;;;;17.73;5.78;;;2.60;99.90;;;;;;5056435;28;20013;-73
2021/01/23 04:47:14;;;;;;;9.93;4.75;;;2.60;99.90;;;;;;5056029;28;20024;-73
2021/01/23 04:49:40;;;;;;;10.20;5.53;;;2.60;99.90;;;;;;5054664;28;20017;-73
2021/01/23 04:52:07;;;;;;;14.90;5.10;;;2.60;99.90;;;;;;5055759;28;20040;-74
2021/01/23 04:54:34;;;;;;;13.50;5.05;;;2.70;99.90;;;;;;5055456;28;20368;-73
2021/01/23 04:57:00;;;;;;;12.43;4.63;;;2.60;99.90;;;;;;5054366;28;20017;-74
2021/01/23 04:59:26;;;;;;;12.70;4.80;;;2.60;99.90;;;;;;5054483;28;20059;-74
2021/01/23 05:02:22;;;;;;;10.77;4.90;;;2.60;99.90;;;;;;5055932;28;20065;-73
2021/01/23 05:05:08;;;;;;;10.80;4.55;;;2.60;99.90;;;;;;5057857;28;20457;-75
2021/01/23 05:07:35;;;;;;;11.80;4.93;;;2.60;99.90;;;;;;5055539;28;20017;-75
2021/01/23 05:10:11;;;;;;;10.70;4.65;;;2.70;99.90;;;;;;5040931;28;20018;-74
2021/01/23 05:12:41;;;;;;;12.63;4.65;;;2.70;99.90;;;;;;5037076;28;20211;-74
2021/01/23 05:15:24;;;;;;;13.10;4.80;;;2.70;99.90;;;;;;5034331;28;20476;-75
2021/01/23 05:17:52;;;;;;;13.32;4.22;;;2.70;99.90;;;;;;5035646;28;20060;-74
2021/01/23 05:20:52;;;;;;;10.48;4.88;;;2.70;99.90;;;;;;5050414;28;20036;-74
2021/01/23 05:23:21;;;;;;;7.75;3.63;;;2.80;99.90;;;;;;5054491;28;20036;-75
2021/01/23 05:25:58;;;;;;;11.77;4.60;;;2.80;99.90;;;;;;5055084;28;20025;-74
2021/01/23 05:28:38;;;;;;;7.05;3.70;;;2.80;99.90;;;;;;5055250;28;20109;-76
2021/01/23 05:31:07;;;;;;;11.85;4.43;;;2.80;99.90;;;;;;5054611;28;20099;-74
2021/01/23 05:33:34;;;;;;;11.57;3.95;;;2.90;99.90;;;;;;5055542;28;20032;-74
2021/01/23 05:36:06;;;;;;;13.05;4.03;;;2.90;99.90;;;;;;5052329;28;20021;-74
2021/01/23 05:38:34;;;;;;;16.27;4.45;;;2.90;99.90;;;;;;5034876;28;20030;-74
2021/01/23 05:41:06;;;;;;;8.75;3.38;;;3.00;99.90;;;;;;5035190;28;20054;-74
2021/01/23 05:43:46;;;;;;;8.52;3.70;;;3.00;99.90;;;;;;5033483;28;20044;-74
2021/01/23 05:46:30;;;;;;;10.98;3.92;;;3.10;99.90;;;;;;5035548;28;20155;-74
2021/01/23 05:48:57;;;;;;;10.05;3.08;;;3.10;99.90;;;;;;5053504;28;20025;-74
2021/01/23 05:51:24;;;;;;;8.50;4.07;;;3.10;99.90;;;;;;5054699;28;20079;-74
2021/01/23 05:53:50;;;;;;;10.35;3.72;;;3.10;99.90;;;;;;5055453;28;20418;-74
2021/01/23 05:56:16;;;;;;;10.18;3.50;;;3.20;99.90;;;;;;5052718;28;20391;-74
2021/01/23 05:58:43;;;;;;;6.65;3.55;;;3.20;99.90;;;;;;5053568;28;20017;-74
2021/01/23 06:01:13;;;;;;;7.72;3.15;;;3.20;99.90;;;;;;5054942;28;20029;-74
2021/01/23 06:03:44;;;;;;;8.93;3.75;;;3.30;99.90;;;;;;5054838;28;20400;-75
2021/01/23 06:06:10;;;;;;;11.20;3.20;;;3.30;99.90;;;;;;5050275;28;20024;-75
2021/01/23 06:08:50;;;;;;;9.30;3.47;;;3.40;99.90;;;;;;5035018;28;20021;-75
2021/01/23 06:11:18;;;;;;;5.85;2.40;;;3.40;99.90;;;;;;5034832;28;20520;-75
2021/01/23 06:13:48;;;;;;;11.65;3.30;;;3.50;99.90;;;;;;5034758;28;20025;-75
2021/01/23 06:16:32;;;;;;;6.32;3.20;;;3.50;99.90;;;;;;5035440;28;20389;-74
2021/01/23 06:19:16;;;;;;;5.85;2.90;;;3.50;99.90;;;;;;5053448;28;20071;-74
2021/01/23 06:21:45;;;;;;;10.32;3.38;;;3.60;99.90;;;;;;5053286;28;20123;-74
2021/01/23 06:24:18;;;;;;;6.47;2.33;;;3.60;99.90;;;;;;5053144;28;20023;-75
2021/01/23 06:27:10;;;;;;;9.45;2.30;;;3.60;99.90;;;;;;5052855;28;20025;-74
2021/01/23 06:29:43;;;;;;;5.45;1.70;;;3.60;99.90;;;;;;5051684;28;20033;-74
2021/01/23 06:32:12;;;;;;;6.30;2.35;;;3.60;99.90;;;;;;5053096;28;20449;-74
2021/01/23 06:34:53;;;;;;;6.30;2.97;;;3.70;99.90;;;;;;5054760;28;20438;-74
2021/01/23 06:37:24;;;;;;;5.72;2.42;;;3.70;99.90;;;;;;5053193;28;20115;-75
2021/01/23 06:39:55;;;;;;;5.78;2.80;;;3.60;99.90;;;;;;5054143;28;20099;-75
2021/01/23 06:42:24;;;;;;;8.52;2.65;;;3.70;99.90;;;;;;5053122;28;20029;-74
2021/01/23 06:44:50;;;;;;;7.03;2.63;;;3.70;99.90;;;;;;5052910;28;20017;-74
2021/01/23 06:47:16;;;;;;;6.03;3.00;;;3.80;99.90;;;;;;5054208;28;20107;-74
2021/01/23 06:49:42;;;;;;;7.25;2.55;;;3.80;99.90;;;;;;5052630;28;20021;-74
2021/01/23 06:52:08;;;;;;;8.85;3.40;;;3.90;99.90;;;;;;5052574;28;20021;-74
2021/01/23 06:54:35;;;;;;;6.55;3.33;;;3.80;99.90;;;;;;5039850;28;20024;-74
2021/01/23 06:57:03;;;;;;;7.30;2.88;;;3.80;99.90;;;;;;5034199;28;20049;-74
2021/01/23 06:59:31;;;;;;;9.10;2.75;;;3.80;99.90;;;;;;5033748;28;20435;-74
2021/01/23 07:02:07;;;;;;;18.08;3.90;;;3.80;99.90;;;;;;5032514;28;20036;-73
2021/01/23 07:04:43;;;;;;;7.18;3.63;;;3.90;99.90;;;;;;5046321;28;20025;-73
2021/01/23 07:07:09;;;;;;;6.40;2.67;;;3.80;99.90;;;;;;5053855;28;20094;-73
2021/01/23 07:09:52;;;;;;;6.47;2.72;;;3.80;99.90;;;;;;5053860;28;20045;-73
2021/01/23 07:12:37;;;;;;;9.77;3.63;;;3.90;99.90;;;;;;5052820;28;20082;-74
2021/01/23 07:15:14;;;;;;;7.45;3.47;;;3.90;99.90;;;;;;5049579;28;20051;-73
2021/01/23 07:17:45;;;;;;;9.43;2.97;;;3.90;99.90;;;;;;5056369;28;20082;-74
2021/01/23 07:20:16;;;;;;;10.80;3.88;;;3.90;99.90;;;;;;5057855;28;20564;-73
2021/01/23 07:22:43;;;;;;;8.20;3.33;;;3.90;99.90;;;;;;5058108;28;20028;-73
2021/01/23 07:25:13;;;;;;;8.55;4.03;;;3.90;99.90;;;;;;5043280;28;20568;-74
2021/01/23 07:27:40;;;;;;;9.18;4.40;;;4.00;99.90;;;;;;5037977;28;20048;-73
2021/01/23 07:30:27;;;;;;;10.05;3.90;;;3.90;99.90;;;;;;5037670;28;20033;-74
2021/01/23 07:32:53;;;;;;;10.32;3.60;;;4.00;99.90;;;;;;5039287;28;20025;-74
2021/01/23 07:35:19;;;;;;;7.50;3.95;;;3.90;99.90;;;;;;5051767;28;20035;-74
2021/01/23 07:37:52;;;;;;;12.90;4.55;;;3.90;99.90;;;;;;5055419;28;20506;-74
2021/01/23 07:40:25;;;;;;;10.93;4.38;;;3.90;99.90;;;;;;5055760;28;20029;-74
2021/01/23 07:42:52;;;;;;;8.90;4.18;;;3.90;99.90;;;;;;5038184;28;20021;-74
2021/01/23 07:45:20;;;;;;;9.38;4.00;;;3.80;99.90;;;;;;5037309;28;20107;-74
2021/01/23 07:47:57;;;;;;;10.02;4.60;;;3.80;99.90;;;;;;5037196;28;20476;-74
2021/01/23 07:50:24;;;;;;;12.15;4.53;;;3.80;99.90;;;;;;5036199;28;20022;-74
2021/01/23 07:52:50;;;;;;;12.73;4.35;;;3.80;99.90;;;;;;5056965;28;20037;-74
2021/01/23 07:55:15;;;;;;;7.22;4.00;;;3.80;99.90;;;;;;5043875;28;20032;-73
2021/01/23 07:57:41;;;;;;;11.68;3.63;;;3.80;99.90;;;;;;5036206;28;20030;-74
2021/01/23 08:00:19;;;;;;;6.70;3.33;;;3.70;99.90;;;;;;5037324;28;20030;-73
2021/01/23 08:02:54;;;;;;;8.53;3.20;;;3.80;99.90;;;;;;5056555;28;20033;-73
2021/01/23 08:05:20;;;;;;;7.38;3.53;;;3.80;99.90;;;;;;5042859;28;20030;-73
2021/01/23 08:07:46;;;;;;;8.10;3.50;;;3.80;99.90;;;;;;5035026;28;20365;-73
2021/01/23 08:10:19;;;;;;;9.48;3.25;;;3.80;99.90;;;;;;5041249;28;20494;-73
2021/01/23 08:12:59;;;;;;;4.40;2.83;;;3.80;99.90;;;;;;5036929;28;20379;-73
2021/01/23 08:15:27;;;;;;;7.25;2.72;;;3.80;99.90;;;;;;5037099;28;20454;-73
2021/01/23 08:17:53;;;;;;;5.60;3.10;;;3.80;99.90;;;;;;5044146;28;20028;-74
2021/01/23 08:20:32;;;;;;;7.78;3.55;;;3.80;99.90;;;;;;5040278;28;20033;-73
2021/01/23 08:23:10;;;;;;;6.35;3.45;;;3.80;99.90;;;;;;5043665;28;20040;-74
2021/01/23 08:25:56;;;;;;;10.48;3.80;;;3.80;99.90;;;;;;5046602;28;20060;-73
2021/01/23 08:28:36;;;;;;;6.00;2.92;;;3.80;99.90;;;;;;5034650;28;20107;-73
2021/01/23 08:31:16;;;;;;;5.30;2.72;;;3.80;99.90;;;;;;5036200;28;20022;-73
2021/01/23 08:33:43;;;;;;;6.95;3.20;;;3.90;99.90;;;;;;5034995;28;20025;-73
2021/01/23 08:36:09;;;;;;;9.32;2.50;;;3.90;99.90;;;;;;5034762;28;20128;-73
2021/01/23 08:38:35;;;;;;;5.32;2.97;;;3.90;99.90;;;;;;5036225;28;20116;-73
2021/01/23 08:41:01;;;;;;;6.03;3.00;;;4.00;99.90;;;;;;5035281;28;20061;-73
2021/01/23 08:43:28;;;;;;;5.53;2.22;;;4.00;99.90;;;;;;5034773;28;20029;-73
2021/01/23 08:45:54;;;;;;;5.55;2.90;;;4.00;99.90;;;;;;5036146;28;20434;-73
2021/01/23 08:48:20;;;;;;;6.72;2.60;;;4.00;99.90;;;;;;5034531;28;20048;-73
2021/01/23 08:50:45;;;;;;;3.42;2.35;;;4.10;99.90;;;;;;5037638;28;20025;-74
2021/01/23 08:53:14;;;;;;;6.18;2.50;;;4.10;99.90;;;;;;5055532;28;20021;-74
2021/01/23 08:55:40;;;;;;;14.40;3.28;;;4.10;99.90;;;;;;5047679;28;20029;-73
2021/01/23 08:58:05;;;;;;;5.90;2.63;;;4.10;99.90;;;;;;5035362;28;20428;-73
2021/01/23 09:00:31;;;;;;;8.18;2.78;;;4.20;99.90;;;;;;5035500;28;20060;-74
2021/01/23 09:03:00;;;;;;;7.95;2.45;;;4.20;99.90;;;;;;5035313;28;20025;-73
2021/01/23 09:05:26;;;;;;;9.23;3.28;;;4.10;99.90;;;;;;5035617;28;20017;-73
2021/01/23 09:07:51;;;;;;;5.47;2.55;;;4.20;99.90;;;;;;5035446;28;20498;-73
2021/01/23 09:10:19;;;;;;;6.15;2.67;;;4.20;99.90;;;;;;5035497;28;20029;-73
2021/01/23 09:12:44;;;;;;;5.45;2.30;;;4.10;99.90;;;;;;5033979;28;20112;-73
2021/01/23 09:15:10;;;;;;;13.65;3.28;;;4.10;99.90;;;;;;5091968;22;20079;-76
2021/01/23 09:17:36;;;;;;;11.35;2.65;;;4.10;99.90;;;;;;5055013;28;20028;-76
2021/01/23 09:20:02;;;;;;;4.85;2.88;;;4.10;99.90;;;;;;5055375;28;20481;-76
2021/01/23 09:22:28;;;;;;;6.88;2.75;;;4.10;99.90;;;;;;5054857;28;20270;-76
2021/01/23 09:24:53;;;;;;;5.47;2.90;;;4.10;99.90;;;;;;5054591;28;20052;-76
2021/01/23 09:27:22;;;;;;;8.45;2.92;;;4.00;99.90;;;;;;5035127;28;20029;-76
2021/01/23 09:29:48;;;;;;;8.35;3.63;;;4.00;99.90;;;;;;5034805;28;20101;-76
2021/01/23 09:32:18;;;;;;;13.15;2.90;;;4.00;99.90;;;;;;5033572;28;20061;-76
2021/01/23 09:34:43;;;;;;;7.32;3.30;;;4.00;99.90;;;;;;5038994;28;20017;-76
2021/01/23 09:37:09;;;;;;;8.35;2.60;;;4.10;99.90;;;;;;5035649;28;20124;-76
2021/01/23 09:39:34;;;;;;;9.25;2.47;;;4.10;99.90;;;;;;5033631;28;20033;-74
2021/01/23 09:42:00;;;;;;;6.32;3.17;;;4.10;99.90;;;;;;5034848;28;20034;-77
2021/01/23 09:44:26;;;;;;;8.45;2.90;;;4.10;99.90;;;;;;5043414;28;20414;-74
2021/01/23 09:46:53;;;;;;;8.52;2.97;;;4.10;99.90;;;;;;5055272;28;20020;-73
2021/01/23 09:49:18;;;;;;;11.13;3.22;;;4.10;99.90;;;;;;5053414;28;20025;-75
2021/01/23 09:51:44;;;;;;;7.85;2.85;;;4.10;99.90;;;;;;5053207;28;20043;-75
2021/01/23 09:54:09;;;;;;;6.95;3.35;;;5.20;99.90;;;;;;5053202;28;20071;-74
2021/01/23 09:56:35;;;;;;;9.60;2.90;;;4.10;99.90;;;;;;5053232;28;20033;-73
2021/01/23 09:59:01;;;;;;;6.47;2.53;;;4.10;99.90;;;;;;5054664;28;20450;-73
2021/01/23 10:01:27;;;;;;;8.20;2.50;;;4.20;99.90;;;;;;5054708;28;20021;-75
2021/01/23 10:03:52;;;;;;;5.65;2.20;;;4.20;99.90;;;;;;5054928;28;20029;-74
2021/01/23 10:06:18;;;;;;;5.78;2.50;;;4.20;99.90;;;;;;5053228;28;20044;-75
2021/01/23 10:08:43;;;;;;;9.93;2.60;;;4.20;99.90;;;;;;5054731;28;20022;-75
2021/01/23 10:11:09;;;;;;;5.53;2.83;;;4.20;99.90;;;;;;5054385;28;20411;-74
2021/01/23 10:13:35;;;;;;;9.52;3.65;;;4.20;99.90;;;;;;5054650;28;20017;-75
2021/01/23 10:16:01;;;;;;;9.18;3.20;;;4.30;99.90;;;;;;5053979;28;20037;-75
2021/01/23 10:18:27;;;;;;;7.72;3.10;;;4.40;99.90;;;;;;5054228;28;20024;-74
2021/01/23 10:20:53;;;;;;;7.68;3.40;;;4.40;99.90;;;;;;5052739;28;20025;-75
2021/01/23 10:23:19;;;;;;;13.25;3.53;;;4.40;99.90;;;;;;5053914;28;20036;-74
2021/01/23 10:25:44;;;;;;;7.95;3.05;;;4.50;99.90;;;;;;5052884;28;20493;-74
2021/01/23 10:28:10;;;;;;;5.97;2.33;;;4.60;99.90;;;;;;5053525;28;20017;-73
2021/01/23 10:30:35;;;;;;;10.32;3.25;;;4.60;99.90;;;;;;5052790;28;20023;-74
2021/01/23 10:33:01;;;;;;;7.30;2.88;;;4.60;99.90;;;;;;5053995;28;20020;-74
2021/01/23 10:35:27;;;;;;;5.75;2.88;;;4.50;99.90;;;;;;5053820;28;20021;-73
2021/01/23 10:37:52;;;;;;;10.23;3.47;;;4.40;99.90;;;;;;5053649;28;20044;-73
2021/01/23 10:40:18;;;;;;;6.40;3.08;;;4.50;99.90;;;;;;5054272;28;20033;-73
2021/01/23 10:42:44;;;;;;;9.10;3.58;;;4.40;99.90;;;;;;5052268;28;20029;-73
2021/01/23 10:45:09;;;;;;;8.57;3.28;;;4.40;99.90;;;;;;5052397;28;20108;-73
2021/01/23 10:47:38;;;;;;;7.45;2.95;;;4.50;99.90;;;;;;5052388;28;20024;-73
2021/01/23 10:50:06;;;;;;;8.25;3.53;;;4.60;99.90;;;;;;5014379;28;20018;-75
2021/01/23 10:52:32;;;;;;;10.32;2.80;;;4.60;99.90;;;;;;5028069;28;20104;-73
2021/01/23 10:54:58;;;;;;;10.43;3.75;;;4.60;99.90;;;;;;5033584;28;20029;-73
2021/01/23 10:57:23;;;;;;;5.47;2.75;;;4.60;99.90;;;;;;5022509;28;20034;-72
2021/01/23 10:59:49;;;;;;;10.70;4.25;;;4.60;99.90;;;;;;5013994;28;20022;-73
2021/01/23 11:02:14;;;;;;;12.30;3.75;;;4.60;99.90;;;;;;5013099;28;20018;-73
2021/01/23 11:04:40;;;;;;;7.97;4.00;;;4.60;99.90;;;;;;5014394;28;20029;-73
2021/01/23 11:07:06;;;;;;;9.50;3.35;;;4.60;99.90;;;;;;5013168;28;20014;-73
2021/01/23 11:09:31;;;;;;;7.65;3.25;;;4.80;99.90;;;;;;5014747;28;20058;-73
2021/01/23 11:11:57;;;;;;;4.82;2.58;;;4.90;99.90;;;;;;5014241;28;20455;-73
2021/01/23 11:14:22;;;;;;;8.52;3.25;;;4.90;99.90;;;;;;5014065;28;20384;-73
2021/01/23 11:16:49;;;;;;;5.47;2.90;;;4.80;99.90;;;;;;5013368;28;20101;-73
2021/01/23 11:19:16;;;;;;;9.57;3.47;;;4.80;99.90;;;;;;5014471;28;20026;-73
2021/01/23 11:21:42;;;;;;;6.85;3.58;;;4.80;99.90;;;;;;5012700;28;20481;-73
2021/01/23 11:24:08;;;;;;;7.20;3.88;;;4.80;99.90;;;;;;5012896;28;20022;-73
2021/01/23 11:26:33;;;;;;;9.40;3.90;;;5.00;99.90;;;;;;5013689;28;20026;-73
2021/01/23 11:28:59;;;;;;;8.90;3.45;;;5.10;99.90;;;;;;5014379;28;20108;-73
2021/01/23 11:31:25;;;;;;;7.50;4.15;;;5.20;99.90;;;;;;5012832;28;20018;-73
2021/01/23 11:33:50;;;;;;;9.95;3.83;;;5.20;99.90;;;;;;5012678;28;20168;-73
2021/01/23 11:36:17;;;;;;;8.68;3.90;;;5.20;99.90;;;;;;5012666;28;20049;-73
2021/01/23 11:38:42;;;;;;;8.07;3.42;;;5.10;99.90;;;;;;5013907;28;20077;-73
2021/01/23 11:41:08;;;;;;;10.35;4.50;;;5.00;99.90;;;;;;5013793;28;20073;-73
2021/01/23 11:43:34;;;;;;;12.57;4.70;;;5.00;99.90;;;;;;5013838;28;20036;-73
2021/01/23 11:46:01;;;;;;;11.07;4.22;;;5.10;99.90;;;;;;5012535;28;20113;-73
2021/01/23 11:48:27;;;;;;;13.73;4.50;;;5.10;99.90;;;;;;5013510;28;20068;-74
2021/01/23 11:50:53;;;;;;;7.20;3.85;;;5.10;99.90;;;;;;5013476;28;20022;-73
2021/01/23 11:53:18;;;;;;;11.60;5.03;;;5.10;99.90;;;;;;5013615;28;20476;-73
2021/01/23 11:55:45;;;;;;;7.95;4.65;;;5.10;99.90;;;;;;5013679;28;20077;-73
2021/01/23 11:58:11;;;;;;;9.38;4.80;;;5.10;99.90;;;;;;5014242;28;20037;-73
2021/01/23 12:00:37;;;;;;;14.63;4.38;;;5.10;99.90;;;;;;5013590;28;20034;-73
2021/01/23 12:03:03;;;;;;;9.57;4.03;;;5.10;99.90;;;;;;5014768;28;20392;-73
2021/01/23 12:05:38;;;;;;;14.90;5.20;;;5.20;99.90;;;;;;5016110;28;20129;-74
2021/01/23 12:08:07;;;;;;;7.07;3.88;;;5.30;99.90;;;;;;5016067;28;20025;-73
2021/01/23 12:10:32;;;;;;;7.13;3.95;;;5.40;99.90;;;;;;5016075;28;20042;-74
2021/01/23 12:12:58;;;;;;;7.60;4.40;;;5.40;99.90;;;;;;5017039;28;20065;-74
2021/01/23 12:15:24;;;;;;;8.52;4.25;;;5.50;99.90;;;;;;5017238;28;20034;-74
2021/01/23 12:17:52;;;;;;;9.98;5.15;;;5.50;99.90;;;;;;5015305;28;20025;-74
2021/01/23 12:20:17;;;;;;;5.90;3.90;;;5.50;99.90;;;;;;5017091;28;20029;-73
2021/01/23 12:22:43;;;;;;;6.07;4.13;;;5.60;99.90;;;;;;5016824;28;20022;-74
2021/01/23 12:25:10;;;;;;;6.38;3.03;;;5.70;99.90;;;;;;5015831;28;20527;-74
2021/01/23 12:27:36;;;;;;;5.50;2.92;;;5.80;99.90;;;;;;5016336;28;20049;-74
2021/01/23 12:30:06;;;;;;;9.93;3.30;;;5.90;99.90;;;;;;5017137;28;20026;-73
2021/01/23 12:32:32;;;;;;;7.15;3.00;;;6.00;99.90;;;;;;5016559;28;20049;-73
2021/01/23 12:34:58;;;;;;;6.63;2.30;;;6.00;99.90;;;;;;5016832;28;20022;-75
2021/01/23 12:37:23;;;;;;;6.38;2.83;;;6.00;99.90;;;;;;5016462;28;20408;-74
2021/01/23 12:39:49;;;;;;;6.93;2.80;;;6.10;99.90;;;;;;5015447;28;20057;-75
2021/01/23 12:42:14;;;;;;;3.38;1.98;;;6.00;99.90;;;;;;5016630;28;20109;-75
2021/01/23 12:44:41;;;;;;;4.45;2.40;;;6.10;99.90;;;;;;5016775;28;20026;-75
2021/01/23 12:47:08;;;;;;;6.70;2.30;;;5.90;99.90;;;;;;5016698;28;20030;-75
2021/01/23 12:49:35;;;;;;;10.77;3.05;;;5.90;99.90;;;;;;5016674;28;20022;-75
2021/01/23 12:52:02;;;;;;;3.65;1.58;;;6.00;99.90;;;;;;5016796;28;20392;-75
2021/01/23 12:54:29;;;;;;;4.32;1.23;;;6.10;99.90;;;;;;5015373;28;20468;-75
2021/01/23 12:56:57;;;;;;;7.38;1.98;;;6.20;99.90;;;;;;5015098;28;20021;-75
2021/01/23 12:59:24;;;;;;;3.23;1.30;;;6.10;99.90;;;;;;5015312;28;20080;-75